Terminal Aerodrome Forecast
Issued by NWS Amarillo, TX

Current Version | Previous Version | Text Only | Print | Product List | Glossary On
Versions: 1 2 3 4 5 6 7 8 9 10 11 12
498
FTUS44 KAMA 182320
TAFGUY
TAF
KGUY 182320Z 1900/1924 18008KT P6SM BKN300
     FM191800 21016KT P6SM SCT300=

USA.gov is the U.S. government's official web portal to all federal, state and local government web resources and services.